createdAt,value
2018-09-14T00:01:47.968Z,100.00
2018-09-14T00:04:16.328Z,100.00
2018-09-14T00:06:51.403Z,100.00
2018-09-14T00:09:19.834Z,100.00
2018-09-14T00:11:49.187Z,100.00
2018-09-14T00:14:17.606Z,100.00
2018-09-14T00:16:45.927Z,100.00
2018-09-14T00:19:14.403Z,100.00
2018-09-14T00:21:43.616Z,100.00
2018-09-14T00:24:12.968Z,100.00
2018-09-14T00:26:42.205Z,100.00
2018-09-14T00:29:11.585Z,100.00
2018-09-14T00:31:40.821Z,100.00
2018-09-14T00:34:10.201Z,100.00
2018-09-14T00:36:38.589Z,100.00
2018-09-14T00:39:09.701Z,100.00
2018-09-14T00:41:39.341Z,100.00
2018-09-14T00:44:08.595Z,100.00
2018-09-14T00:46:37.814Z,100.00
2018-09-14T00:49:07.001Z,100.00
2018-09-14T00:51:36.332Z,100.00
2018-09-14T00:54:04.698Z,100.00
2018-09-14T00:56:34.005Z,100.00
2018-09-14T00:59:03.336Z,100.00
2018-09-14T01:01:32.596Z,100.00
2018-09-14T01:04:00.967Z,100.00
2018-09-14T01:06:30.387Z,100.00
2018-09-14T01:08:58.716Z,100.00
2018-09-14T01:11:28.124Z,100.00
2018-09-14T01:13:56.453Z,100.00
2018-09-14T01:16:27.185Z,100.00
2018-09-14T01:18:56.450Z,100.00
2018-09-14T01:21:26.570Z,100.00
2018-09-14T01:23:55.941Z,100.00
2018-09-14T01:26:26.791Z,100.00
2018-09-14T01:28:56.201Z,100.00
2018-09-14T01:31:26.433Z,100.00
2018-09-14T01:33:55.614Z,100.00
2018-09-14T01:36:25.077Z,100.00
2018-09-14T01:38:54.961Z,100.00
2018-09-14T01:41:25.364Z,100.00
2018-09-14T01:43:55.651Z,100.00
2018-09-14T01:46:25.806Z,100.00
2018-09-14T01:48:55.864Z,100.00
2018-09-14T01:51:25.125Z,100.00
2018-09-14T01:53:54.473Z,100.00
2018-09-14T01:56:23.862Z,100.00
2018-09-14T01:58:54.374Z,100.00
2018-09-14T02:01:26.545Z,100.00
2018-09-14T02:03:56.542Z,100.00
2018-09-14T02:06:27.118Z,100.00
2018-09-14T02:08:56.076Z,100.00
2018-09-14T02:11:27.382Z,100.00
2018-09-14T02:13:55.722Z,100.00
2018-09-14T02:16:25.013Z,100.00
2018-09-14T02:18:57.289Z,100.00
2018-09-14T02:21:26.617Z,100.00
2018-09-14T02:23:55.482Z,100.00
2018-09-14T02:26:26.520Z,100.00
2018-09-14T02:28:56.076Z,100.00
2018-09-14T02:31:25.930Z,100.00
2018-09-14T02:33:55.486Z,100.00
2018-09-14T02:36:25.213Z,100.00
2018-09-14T02:38:54.780Z,100.00
2018-09-14T02:41:23.886Z,100.00
2018-09-14T02:43:54.367Z,100.00
2018-09-14T02:46:25.078Z,100.00
2018-09-14T02:48:54.849Z,100.00
2018-09-14T02:51:25.269Z,100.00
2018-09-14T02:53:56.607Z,100.00
2018-09-14T02:56:25.489Z,100.00
2018-09-14T02:58:55.937Z,100.00
2018-09-14T03:01:27.789Z,100.00
2018-09-14T03:03:57.140Z,100.00
2018-09-14T03:06:26.869Z,100.00
2018-09-14T03:08:55.745Z,100.00
2018-09-14T03:11:24.153Z,100.00
2018-09-14T03:13:53.371Z,100.00
2018-09-14T03:16:24.006Z,100.00
2018-09-14T03:18:54.518Z,100.00
2018-09-14T03:21:24.292Z,100.00
2018-09-14T03:23:53.468Z,100.00
2018-09-14T03:26:23.494Z,100.00
2018-09-14T03:28:52.008Z,100.00
2018-09-14T03:31:20.471Z,100.00
2018-09-14T03:33:48.924Z,100.00
2018-09-14T03:36:17.292Z,100.00
2018-09-14T03:38:45.625Z,100.00
2018-09-14T03:41:14.043Z,100.00
2018-09-14T03:43:42.385Z,100.00
2018-09-14T03:46:10.756Z,100.00
2018-09-14T03:48:39.219Z,100.00
2018-09-14T03:51:07.634Z,100.00
2018-09-14T03:53:35.977Z,100.00
2018-09-14T03:56:05.230Z,100.00
2018-09-14T03:58:33.713Z,100.00
2018-09-14T04:01:02.277Z,100.00
2018-09-14T04:03:30.597Z,100.00
2018-09-14T04:06:00.357Z,100.00
2018-09-14T04:08:28.679Z,100.00
2018-09-14T04:10:57.041Z,100.00
2018-09-14T04:13:26.412Z,100.00
2018-09-14T04:15:57.040Z,100.00
2018-09-14T04:18:26.946Z,100.00
2018-09-14T04:20:55.992Z,100.00
2018-09-14T04:23:27.252Z,100.00
2018-09-14T04:25:56.123Z,100.00
2018-09-14T04:28:25.880Z,100.00
2018-09-14T04:30:55.653Z,100.00
2018-09-14T04:33:26.243Z,100.00
2018-09-14T04:35:56.383Z,100.00
2018-09-14T04:38:24.886Z,100.00
2018-09-14T04:40:54.365Z,100.00
2018-09-14T04:43:24.034Z,100.00
2018-09-14T04:45:54.376Z,100.00
2018-09-14T04:48:25.306Z,100.00
2018-09-14T04:50:55.441Z,100.00
2018-09-14T04:53:25.690Z,100.00
2018-09-14T04:55:54.908Z,100.00
2018-09-14T04:58:25.818Z,100.00
2018-09-14T05:00:56.809Z,100.00
2018-09-14T05:03:26.218Z,100.00
2018-09-14T05:05:56.374Z,100.00
2018-09-14T05:08:25.653Z,100.00
2018-09-14T05:10:54.984Z,100.00
2018-09-14T05:13:25.396Z,100.00
2018-09-14T05:15:57.356Z,100.00
2018-09-14T05:18:25.891Z,100.00
2018-09-14T05:20:55.321Z,100.00
2018-09-14T05:23:25.061Z,100.00
2018-09-14T05:25:53.717Z,100.00
2018-09-14T05:28:22.564Z,100.00
2018-09-14T05:30:50.941Z,100.00
2018-09-14T05:33:19.420Z,100.00
2018-09-14T05:35:47.743Z,100.00
2018-09-14T05:38:16.103Z,100.00
2018-09-14T05:40:44.517Z,100.00
2018-09-14T05:43:13.652Z,100.00
2018-09-14T05:45:43.054Z,100.00
2018-09-14T05:48:11.302Z,100.00
2018-09-14T05:50:40.692Z,100.00
2018-09-14T05:53:09.097Z,100.00
2018-09-14T05:55:37.438Z,100.00
2018-09-14T05:58:06.789Z,100.00
2018-09-14T06:00:35.124Z,100.00
2018-09-14T06:03:04.392Z,100.00
2018-09-14T06:05:32.850Z,100.00
2018-09-14T06:08:01.181Z,100.00
2018-09-14T06:10:29.582Z,100.00
2018-09-14T06:12:57.917Z,100.00
2018-09-14T06:15:27.255Z,100.00
2018-09-14T06:17:56.931Z,100.00
2018-09-14T06:20:26.144Z,100.00
2018-09-14T06:22:56.950Z,100.00
2018-09-14T06:25:25.848Z,100.00
2018-09-14T06:27:55.228Z,100.00
2018-09-14T06:30:25.995Z,100.00
2018-09-14T06:32:56.504Z,100.00
2018-09-14T06:35:25.804Z,100.00
2018-09-14T06:37:56.473Z,99.95
2018-09-14T06:40:25.127Z,100.00
2018-09-14T06:42:55.276Z,100.00
2018-09-14T06:45:25.697Z,96.83
2018-09-14T06:47:56.697Z,93.83
2018-09-14T06:50:26.326Z,95.45
2018-09-14T06:52:55.636Z,96.01
2018-09-14T06:55:25.437Z,95.03
2018-09-14T06:57:56.761Z,97.55
2018-09-14T07:00:26.541Z,93.08
2018-09-14T07:02:55.660Z,92.01
2018-09-14T07:05:25.970Z,90.29
2018-09-14T07:07:55.711Z,90.08
2018-09-14T07:10:27.023Z,90.93
2018-09-14T07:12:56.134Z,91.55
2018-09-14T07:15:26.525Z,87.98
2018-09-14T07:17:55.879Z,88.69
2018-09-14T07:20:26.040Z,89.50
2018-09-14T07:22:56.066Z,89.25
2018-09-14T07:25:25.792Z,87.67
2018-09-14T07:27:55.392Z,89.49
2018-09-14T07:30:24.883Z,88.87
2018-09-14T07:32:54.158Z,86.67
2018-09-14T07:35:22.739Z,86.43
2018-09-14T07:37:51.246Z,85.24
2018-09-14T07:40:19.636Z,87.84
2018-09-14T07:42:49.016Z,82.22
2018-09-14T07:45:18.382Z,86.38
2018-09-14T07:47:47.608Z,83.67
2018-09-14T07:50:16.961Z,80.08
2018-09-14T07:52:46.367Z,82.92
2018-09-14T07:55:15.787Z,79.97
2018-09-14T07:57:44.121Z,81.07
2018-09-14T08:00:12.509Z,80.89
2018-09-14T08:02:40.919Z,79.63
2018-09-14T08:05:09.473Z,81.39
2018-09-14T08:07:38.633Z,77.95
2018-09-14T08:10:06.982Z,80.15
2018-09-14T08:12:35.503Z,82.53
2018-09-14T08:15:03.889Z,79.71
2018-09-14T08:17:32.265Z,79.45
2018-09-14T08:20:01.744Z,75.83
2018-09-14T08:22:30.110Z,75.76
2018-09-14T08:24:59.349Z,77.02
2018-09-14T08:27:27.749Z,76.80
2018-09-14T08:29:56.997Z,77.76
2018-09-14T08:32:26.475Z,79.36
2018-09-14T08:34:55.804Z,75.53
2018-09-14T08:37:25.310Z,79.08
2018-09-14T08:39:54.126Z,78.69
2018-09-14T08:42:23.561Z,77.41
2018-09-14T08:44:52.580Z,78.68
2018-09-14T08:47:20.990Z,78.18
2018-09-14T08:49:49.482Z,76.62
2018-09-14T08:52:18.188Z,77.18
2018-09-14T08:54:46.529Z,73.77
2018-09-14T08:57:14.862Z,74.76
2018-09-14T08:59:43.189Z,75.12
2018-09-14T09:02:11.724Z,75.44
2018-09-14T09:04:41.091Z,73.27
2018-09-14T09:07:10.862Z,76.20
2018-09-14T09:09:39.209Z,71.25
2018-09-14T09:12:07.541Z,73.84
2018-09-14T09:14:35.886Z,74.44
2018-09-14T09:17:05.108Z,71.58
2018-09-14T09:19:34.433Z,75.14
2018-09-14T09:22:03.756Z,75.21
2018-09-14T09:24:32.944Z,70.66
2018-09-14T09:27:02.336Z,70.41
2018-09-14T09:29:31.727Z,67.98
2018-09-14T09:32:01.046Z,69.55
2018-09-14T09:34:30.401Z,67.58
2018-09-14T09:36:59.625Z,69.93
2018-09-14T09:39:27.976Z,69.32
2018-09-14T09:41:56.301Z,66.85
2018-09-14T09:44:25.554Z,70.61
2018-09-14T09:46:56.864Z,67.72
2018-09-14T09:49:26.356Z,66.28
2018-09-14T09:51:57.192Z,66.27
2018-09-14T09:54:26.781Z,63.83
2018-09-14T09:56:56.433Z,65.94
2018-09-14T09:59:27.632Z,66.57
2018-09-14T10:02:01.500Z,64.49
2018-09-14T10:04:33.381Z,66.47
2018-09-14T10:07:02.700Z,65.08
2018-09-14T10:09:31.109Z,65.83
2018-09-14T10:12:00.460Z,64.13
2018-09-14T10:14:29.953Z,67.17
2018-09-14T10:16:58.427Z,65.46
2018-09-14T10:19:26.916Z,62.87
2018-09-14T10:21:56.456Z,64.17
2018-09-14T10:24:25.833Z,61.60
2018-09-14T10:26:55.008Z,62.59
2018-09-14T10:29:25.057Z,62.70
2018-09-14T10:31:55.366Z,61.87
2018-09-14T10:34:24.601Z,61.29
2018-09-14T10:36:54.030Z,62.24
2018-09-14T10:39:22.784Z,63.20
2018-09-14T10:41:51.285Z,64.76
2018-09-14T10:44:19.717Z,63.64
2018-09-14T10:46:48.082Z,60.84
2018-09-14T10:49:16.410Z,65.23
2018-09-14T10:51:45.821Z,62.61
2018-09-14T10:54:15.185Z,63.35
2018-09-14T10:56:44.659Z,66.64
2018-09-14T10:59:13.298Z,61.47
2018-09-14T11:01:41.721Z,64.40
2018-09-14T11:04:11.149Z,62.34
2018-09-14T11:06:40.465Z,64.04
2018-09-14T11:09:10.981Z,62.01
2018-09-14T11:11:39.540Z,64.88
2018-09-14T11:14:08.041Z,64.37
2018-09-14T11:16:36.452Z,66.43
2018-09-14T11:19:05.048Z,64.39
2018-09-14T11:21:34.536Z,64.97
2018-09-14T11:24:03.084Z,63.64
2018-09-14T11:26:31.602Z,66.17
2018-09-14T11:29:00.912Z,68.46
2018-09-14T11:31:29.400Z,65.51
2018-09-14T11:33:58.524Z,64.83
2018-09-14T11:36:27.324Z,66.67
2018-09-14T11:38:56.466Z,64.55
2018-09-14T11:41:26.808Z,65.55
2018-09-14T11:43:56.005Z,65.13
2018-09-14T11:46:25.361Z,64.12
2018-09-14T11:48:54.781Z,65.47
2018-09-14T11:51:24.188Z,68.33
2018-09-14T11:53:53.105Z,66.76
2018-09-14T11:56:21.533Z,67.71
2018-09-14T11:58:50.005Z,65.91
2018-09-14T12:01:18.481Z,66.75
2018-09-14T12:03:47.641Z,68.52
2018-09-14T12:06:16.095Z,68.32
2018-09-14T12:08:45.468Z,68.04
2018-09-14T12:11:14.992Z,67.17
2018-09-14T12:13:43.474Z,67.65
2018-09-14T12:16:11.781Z,68.46
2018-09-14T12:18:40.125Z,68.47
2018-09-14T12:21:08.464Z,68.68
2018-09-14T12:23:36.878Z,68.37
2018-09-14T12:26:05.213Z,68.92
2018-09-14T12:28:34.351Z,69.62
2018-09-14T12:31:03.837Z,70.23
2018-09-14T12:33:33.319Z,67.37
2018-09-14T12:36:01.846Z,71.41
2018-09-14T12:38:30.225Z,72.82
2018-09-14T12:40:59.536Z,68.80
2018-09-14T12:43:28.876Z,74.37
2018-09-14T12:45:58.812Z,72.07
2018-09-14T12:48:28.160Z,73.22
2018-09-14T12:50:56.625Z,70.12
2018-09-14T12:53:25.980Z,70.84
2018-09-14T12:55:57.010Z,70.64
2018-09-14T12:58:27.758Z,67.16
2018-09-14T13:00:56.372Z,66.55
2018-09-14T13:03:25.594Z,65.58
2018-09-14T13:05:55.841Z,67.34
2018-09-14T13:08:26.587Z,68.46
2018-09-14T13:10:55.897Z,66.40
2018-09-14T13:13:26.785Z,67.21
2018-09-14T13:15:56.597Z,67.15
2018-09-14T13:18:26.161Z,66.41
2018-09-14T13:20:55.601Z,64.70
2018-09-14T13:23:26.557Z,64.95
2018-09-14T13:25:56.268Z,63.55
2018-09-14T13:28:26.721Z,64.77
2018-09-14T13:30:56.205Z,64.98
2018-09-14T13:33:25.475Z,67.37
2018-09-14T13:35:56.740Z,65.57
2018-09-14T13:38:26.205Z,67.56
2018-09-14T13:40:55.445Z,67.73
2018-09-14T13:43:25.530Z,66.90
2018-09-14T13:45:53.960Z,67.48
2018-09-14T13:48:23.311Z,67.48
2018-09-14T13:50:51.690Z,65.91
2018-09-14T13:53:20.188Z,63.43
2018-09-14T13:55:48.607Z,65.65
2018-09-14T13:58:17.012Z,65.51
2018-09-14T14:00:46.408Z,69.08
2018-09-14T14:03:15.741Z,67.71
2018-09-14T14:05:44.058Z,67.68
2018-09-14T14:08:12.620Z,66.51
2018-09-14T14:10:41.972Z,67.25
2018-09-14T14:13:10.321Z,67.66
2018-09-14T14:15:39.529Z,67.43
2018-09-14T14:18:08.923Z,64.84
2018-09-14T14:20:37.314Z,66.62
2018-09-14T14:23:06.848Z,66.29
2018-09-14T14:25:36.044Z,65.43
2018-09-14T14:28:05.433Z,67.98
2018-09-14T14:30:33.765Z,64.04
2018-09-14T14:33:03.106Z,64.91
2018-09-14T14:35:32.335Z,63.71
2018-09-14T14:38:01.601Z,64.02
2018-09-14T14:40:30.997Z,64.44
2018-09-14T14:43:00.318Z,63.78
2018-09-14T14:45:29.537Z,63.51
2018-09-14T14:47:58.125Z,63.85
2018-09-14T14:50:27.469Z,66.33
2018-09-14T14:52:55.805Z,65.57
2018-09-14T14:55:25.240Z,68.32
2018-09-14T14:57:54.535Z,68.63
2018-09-14T15:00:23.862Z,68.12
2018-09-14T15:02:52.825Z,67.55
2018-09-14T15:05:21.158Z,67.11
2018-09-14T15:07:50.360Z,68.89
2018-09-14T15:10:18.691Z,70.04
2018-09-14T15:12:47.021Z,70.73
2018-09-14T15:15:15.338Z,70.99
2018-09-14T15:17:43.734Z,72.25
2018-09-14T15:20:12.065Z,72.99
2018-09-14T15:22:40.425Z,70.67
2018-09-14T15:25:09.858Z,74.81
2018-09-14T15:27:39.293Z,72.14
2018-09-14T15:30:08.462Z,70.30
2018-09-14T15:32:36.817Z,70.53
2018-09-14T15:35:05.178Z,69.99
2018-09-14T15:37:33.634Z,68.77
2018-09-14T15:40:02.845Z,69.67
2018-09-14T15:42:38.518Z,66.37
2018-09-14T15:45:07.110Z,68.68
2018-09-14T15:47:35.472Z,68.12
2018-09-14T15:50:04.756Z,69.16
2018-09-14T15:52:33.161Z,68.63
2018-09-14T15:55:01.529Z,70.59
2018-09-14T15:57:29.861Z,70.45
2018-09-14T15:59:59.153Z,70.20
2018-09-14T16:02:28.486Z,70.67
2018-09-14T16:04:56.973Z,72.66
2018-09-14T16:07:27.606Z,74.02
2018-09-14T16:09:57.061Z,75.10
2018-09-14T16:12:26.388Z,75.74
2018-09-14T16:14:55.776Z,74.29
2018-09-14T16:17:26.459Z,74.87
2018-09-14T16:19:55.970Z,76.03
2018-09-14T16:22:25.681Z,76.95
2018-09-14T16:24:54.917Z,77.25
2018-09-14T16:27:25.397Z,75.99
2018-09-14T16:29:56.021Z,76.38
2018-09-14T16:32:25.467Z,74.82
2018-09-14T16:34:55.041Z,75.82
2018-09-14T16:37:25.454Z,76.37
2018-09-14T16:39:55.502Z,75.58
2018-09-14T16:42:25.741Z,77.13
2018-09-14T16:44:56.201Z,76.44
2018-09-14T16:47:26.834Z,78.39
2018-09-14T16:49:55.967Z,78.87
2018-09-14T16:52:25.883Z,78.94
2018-09-14T16:54:56.062Z,80.14
2018-09-14T16:57:27.135Z,82.37
2018-09-14T16:59:55.667Z,83.53
2018-09-14T17:02:26.059Z,81.61
2018-09-14T17:04:57.113Z,84.63
2018-09-14T17:07:26.284Z,84.68
2018-09-14T17:09:55.731Z,82.92
2018-09-14T17:12:25.976Z,84.89
2018-09-14T17:14:56.886Z,85.00
2018-09-14T17:17:26.291Z,86.91
2018-09-14T17:19:55.584Z,86.77
2018-09-14T17:22:25.222Z,87.32
2018-09-14T17:24:53.680Z,87.58
2018-09-14T17:27:24.234Z,88.72
2018-09-14T17:29:53.622Z,88.50
2018-09-14T17:32:23.877Z,89.33
2018-09-14T17:34:53.311Z,89.23
2018-09-14T17:37:21.645Z,89.57
2018-09-14T17:39:50.937Z,90.07
2018-09-14T17:42:19.285Z,90.38
2018-09-14T17:44:47.657Z,91.35
2018-09-14T17:47:16.049Z,92.77
2018-09-14T17:49:44.385Z,92.23
2018-09-14T17:52:12.777Z,91.47
2018-09-14T17:54:41.168Z,93.06
2018-09-14T17:57:09.565Z,92.61
2018-09-14T17:59:37.984Z,94.24
2018-09-14T18:02:06.640Z,94.22
2018-09-14T18:04:34.992Z,94.68
2018-09-14T18:07:03.333Z,94.53
2018-09-14T18:09:31.676Z,95.44
2018-09-14T18:12:00.026Z,95.94
2018-09-14T18:14:35.194Z,96.56
2018-09-14T18:17:03.540Z,96.30
2018-09-14T18:19:31.889Z,97.66
2018-09-14T18:22:00.342Z,97.61
2018-09-14T18:24:33.124Z,98.46
2018-09-14T18:27:03.770Z,98.15
2018-09-14T18:29:32.487Z,99.38
2018-09-14T18:32:00.865Z,99.54
2018-09-14T18:34:29.298Z,99.68
2018-09-14T18:36:57.704Z,99.99
2018-09-14T18:39:26.511Z,100.00
2018-09-14T18:42:03.354Z,100.00
2018-09-14T18:44:35.744Z,100.00
2018-09-14T18:47:14.096Z,100.00
2018-09-14T18:49:42.628Z,100.00
2018-09-14T18:52:11.103Z,100.00
2018-09-14T18:54:39.718Z,100.00
2018-09-14T18:57:08.829Z,100.00
2018-09-14T18:59:37.219Z,100.00
2018-09-14T19:02:05.721Z,100.00
2018-09-14T19:04:34.070Z,100.00
2018-09-14T19:07:02.400Z,100.00
2018-09-14T19:09:34.548Z,100.00
2018-09-14T19:12:06.405Z,100.00
2018-09-14T19:14:34.881Z,100.00
2018-09-14T19:17:03.353Z,100.00
2018-09-14T19:19:33.709Z,100.00
2018-09-14T19:22:02.038Z,100.00
2018-09-14T19:24:30.548Z,100.00
2018-09-14T19:26:58.888Z,100.00
2018-09-14T19:29:27.216Z,100.00
2018-09-14T19:31:56.469Z,100.00
2018-09-14T19:34:26.229Z,100.00
2018-09-14T19:36:55.785Z,100.00
2018-09-14T19:39:25.077Z,100.00
2018-09-14T19:41:54.181Z,100.00
2018-09-14T19:44:23.040Z,100.00
2018-09-14T19:46:51.436Z,100.00
2018-09-14T19:49:19.763Z,100.00
2018-09-14T19:51:48.530Z,100.00
2018-09-14T19:54:17.020Z,100.00
2018-09-14T19:56:45.408Z,100.00
2018-09-14T19:59:14.789Z,100.00
2018-09-14T20:01:43.274Z,100.00
2018-09-14T20:04:11.697Z,100.00
2018-09-14T20:06:40.024Z,100.00
2018-09-14T20:09:11.282Z,100.00
2018-09-14T20:11:39.758Z,100.00
2018-09-14T20:14:08.090Z,100.00
2018-09-14T20:16:36.791Z,100.00
2018-09-14T20:19:05.211Z,100.00
2018-09-14T20:21:34.903Z,100.00
2018-09-14T20:24:03.226Z,100.00
2018-09-14T20:26:31.832Z,100.00
2018-09-14T20:29:00.167Z,100.00
2018-09-14T20:31:28.567Z,100.00
2018-09-14T20:33:57.794Z,100.00
2018-09-14T20:36:26.209Z,100.00
2018-09-14T20:38:55.700Z,100.00
2018-09-14T20:41:25.458Z,100.00
2018-09-14T20:43:54.974Z,100.00
2018-09-14T20:46:24.477Z,100.00
2018-09-14T20:48:54.223Z,100.00
2018-09-14T20:51:23.668Z,100.00
2018-09-14T20:53:52.068Z,100.00
2018-09-14T20:56:20.484Z,100.00
2018-09-14T20:58:49.140Z,100.00
2018-09-14T21:01:17.513Z,100.00
2018-09-14T21:03:45.846Z,100.00
2018-09-14T21:06:14.209Z,100.00
2018-09-14T21:08:43.545Z,100.00
2018-09-14T21:11:12.925Z,100.00
2018-09-14T21:13:41.296Z,100.00
2018-09-14T21:16:09.616Z,100.00
2018-09-14T21:18:37.946Z,100.00
2018-09-14T21:21:07.216Z,100.00
2018-09-14T21:23:35.672Z,100.00
2018-09-14T21:26:04.006Z,100.00
2018-09-14T21:28:32.536Z,100.00
2018-09-14T21:31:01.754Z,100.00
2018-09-14T21:33:30.267Z,100.00
2018-09-14T21:36:00.053Z,100.00
2018-09-14T21:38:28.388Z,100.00
2018-09-14T21:40:57.840Z,100.00
2018-09-14T21:43:27.181Z,100.00
2018-09-14T21:45:57.257Z,100.00
2018-09-14T21:48:26.301Z,100.00
2018-09-14T21:50:55.097Z,100.00
2018-09-14T21:53:24.101Z,100.00
2018-09-14T21:55:53.107Z,100.00
2018-09-14T21:58:22.950Z,100.00
2018-09-14T22:00:56.688Z,100.00
2018-09-14T22:03:26.032Z,100.00
2018-09-14T22:05:55.388Z,100.00
2018-09-14T22:08:24.903Z,100.00
2018-09-14T22:10:55.241Z,100.00
2018-09-14T22:13:25.485Z,100.00
2018-09-14T22:15:54.899Z,100.00
2018-09-14T22:18:24.906Z,100.00
2018-09-14T22:20:54.863Z,100.00
2018-09-14T22:23:30.865Z,100.00
2018-09-14T22:26:00.974Z,100.00
2018-09-14T22:28:30.301Z,100.00
2018-09-14T22:30:59.578Z,100.00
2018-09-14T22:33:27.904Z,100.00
2018-09-14T22:35:56.847Z,100.00
2018-09-14T22:38:26.265Z,100.00
2018-09-14T22:40:55.577Z,100.00
2018-09-14T22:43:25.107Z,100.00
2018-09-14T22:45:54.241Z,100.00
2018-09-14T22:48:22.778Z,100.00
2018-09-14T22:50:51.111Z,100.00
2018-09-14T22:53:20.632Z,100.00
2018-09-14T22:55:48.977Z,100.00
2018-09-14T22:58:17.318Z,100.00
2018-09-14T23:00:51.040Z,100.00
2018-09-14T23:03:19.424Z,100.00
2018-09-14T23:05:48.872Z,100.00
2018-09-14T23:08:17.200Z,100.00
2018-09-14T23:10:46.397Z,100.00
2018-09-14T23:13:15.818Z,100.00
2018-09-14T23:15:51.300Z,100.00
2018-09-14T23:18:20.660Z,100.00
2018-09-14T23:20:48.984Z,100.00
2018-09-14T23:23:18.328Z,100.00
2018-09-14T23:25:46.949Z,100.00
2018-09-14T23:28:15.267Z,100.00
2018-09-14T23:30:43.596Z,100.00
2018-09-14T23:33:11.952Z,100.00
2018-09-14T23:35:40.892Z,100.00
2018-09-14T23:38:10.217Z,100.00
2018-09-14T23:40:38.652Z,100.00
2018-09-14T23:43:08.215Z,100.00
2018-09-14T23:45:37.679Z,100.00
2018-09-14T23:48:06.896Z,100.00
2018-09-14T23:50:36.192Z,100.00
2018-09-14T23:53:05.433Z,100.00
2018-09-14T23:55:34.736Z,100.00
2018-09-14T23:58:03.993Z,100.00
